Bei Facebook empfehlenBei Twitter postenGoogle plusPinterest

Das Wetter im Erzgebirge am 11.03.2017

Wetter und Klima am 11.03.2017 Holzhau im Erzgebirge (630m ü.NN)
Letzte gemessene Temperatur und Uhrzeit der Messung23:45:00 Uhr-3.10 °C
Temperatur (Maximum / Höchstwert) und Uhrzeit der Messung13:45:00 Uhr6.90 °C
Temperatur (Minimum / Tiefstwert) und Uhrzeit der Messung23:00:00-3.20 °C
Errechneter Absolutwert der Temperaturschwankungen zwischen Tmin und Tmax des Tages10.10 K
Errechnete Tagesmitteltemperatur1.43229 °C
Gesamt - Niederschlag des Tages (in flüssiger Form)0.00 Liter / m²
Luftdruck (Maximum / Höchstwert) und Zeitpunkt der Messung01:45:00 Uhr1022.10 hPa
Luftdruck (Minimum / Tiefstwert) und Zeitpunkt der Messung23:30:00 Uhr1018.50 hPa
Errechneter Absolutwert der Luftdruckschwankungen des Tages3.60 hPa
Höchste gemessene Windgeschwindigkeit und Uhrzeit der Messung12:45:00 Uhr8.64 km/h
Errechnete Windhäufigkeit in Relation zu den Messwerten des Tages13.54167 %
Niedrigste Windkühle (Windchill) und Zeitpunkt der Messung23:00:00 Uhr-3.20 °C
Taupunkt (Maximum / Höchstwert) und Uhrzeit der Messung10:15:00 Uhr2.70 °C
Taupunkt (Minimum / Tiefstwert) und Uhrzeit der Messung23:00:00-4.60 °C
Anzahl der automatisch eingelesenen Messwerte 96

Detaillierte Wetter- und Klima- Messwerte für den 11.03.2017 in Holzhau im Erzgebirge (630m ü.NN)
ZeitTemperaturLuftdruckRel. LuftfeuchteWindWindrichtungWindchillTaupunktNiederschlag l/m²
23:45:00-3.10 °C1018.80 hPa92.00 %-4.30 °C 
23:30:00-3.00 °C1018.50 hPa92.00 %2.52 km/hOSO-3.00 °C-4.20 °C 
23:15:00-3.10 °C1018.90 hPa91.00 %-4.50 °C 
23:00:00-3.20 °C1018.90 hPa91.00 %-4.60 °C 
22:45:00-2.90 °C1019.00 hPa91.00 %-4.30 °C 
22:30:00-2.70 °C1018.80 hPa91.00 %-4.10 °C 
22:15:00-2.60 °C1019.00 hPa91.00 %-4.00 °C 
22:00:00-2.60 °C1019.20 hPa91.00 %-4.00 °C 
21:45:00-2.70 °C1019.20 hPa90.00 %-4.30 °C 
21:30:00-2.50 °C1019.20 hPa90.00 %-4.10 °C 
21:15:00-2.40 °C1019.20 hPa90.00 %-4.00 °C 
21:00:00-2.40 °C1019.10 hPa90.00 %-4.00 °C 
20:45:00-2.20 °C1019.00 hPa89.00 %-4.00 °C 
20:30:00-2.10 °C1019.20 hPa89.00 %-3.90 °C 
20:15:00-2.10 °C1019.30 hPa89.00 %-3.90 °C 
20:00:00-1.90 °C1019.10 hPa88.00 %-3.80 °C 
19:45:00-1.60 °C1019.20 hPa87.00 %-3.70 °C 
19:30:00-1.10 °C1019.30 hPa86.00 %-3.40 °C 
19:15:00-0.50 °C1019.20 hPa86.00 %-2.80 °C 
19:00:000.20 °C1019.30 hPa85.00 %-2.00 °C 
18:45:000.90 °C1019.00 hPa84.00 %-1.50 °C 
18:30:001.60 °C1018.80 hPa83.00 %-1.00 °C 
18:15:002.30 °C1019.00 hPa82.00 %-0.40 °C 
18:00:002.90 °C1019.10 hPa80.00 %-0.20 °C 
17:45:003.40 °C1019.00 hPa80.00 %0.30 °C 
17:30:003.80 °C1019.10 hPa79.00 %0.50 °C 
17:15:004.30 °C1018.90 hPa78.00 %0.80 °C 
17:00:004.60 °C1018.90 hPa77.00 %0.90 °C 
16:45:004.80 °C1018.90 hPa76.00 %4.68 km/hNO4.80 °C0.90 °C 
16:30:004.80 °C1018.90 hPa75.00 %0.80 °C 
16:15:005.30 °C1018.90 hPa73.00 %0.90 °C 
16:00:005.60 °C1018.90 hPa74.00 %1.30 °C 
15:45:005.70 °C1018.90 hPa73.00 %1.20 °C 
15:30:005.80 °C1019.00 hPa73.00 %1.30 °C 
15:15:005.90 °C1019.10 hPa71.00 %1.10 °C 
15:00:006.00 °C1019.30 hPa71.00 %1.20 °C 
14:45:006.10 °C1019.50 hPa69.00 %0.90 °C 
14:30:006.40 °C1019.50 hPa69.00 %1.10 °C 
14:15:006.40 °C1019.70 hPa69.00 %1.08 km/hWSW6.40 °C1.10 °C 
14:00:006.60 °C1019.60 hPa67.00 %8.28 km/hWNW4.90 °C0.90 °C 
13:45:006.90 °C1019.70 hPa67.00 %1.20 °C 
13:30:006.70 °C1019.80 hPa69.00 %1.40 °C 
13:15:006.80 °C1019.90 hPa70.00 %4.68 km/hNNW6.80 °C1.70 °C 
13:00:006.90 °C1020.00 hPa70.00 %4.68 km/hWNW6.90 °C1.80 °C 
12:45:006.80 °C1020.10 hPa70.00 %8.64 km/hWNW5.10 °C1.70 °C 
12:30:006.90 °C1020.30 hPa73.00 %3.24 km/hW6.90 °C2.40 °C 
12:15:005.90 °C1020.40 hPa76.00 %6.12 km/hNW4.70 °C2.00 °C 
12:00:006.20 °C1020.40 hPa76.00 %2.30 °C 
11:45:006.10 °C1020.50 hPa76.00 %1.44 km/hWNW6.10 °C2.20 °C 
11:30:005.90 °C1020.60 hPa79.00 %2.16 km/hW5.90 °C2.50 °C 
11:15:005.30 °C1020.70 hPa81.00 %2.30 °C 
11:00:005.10 °C1020.70 hPa83.00 %2.50 °C 
10:45:005.10 °C1020.60 hPa83.00 %2.50 °C 
10:30:005.00 °C1020.60 hPa83.00 %2.40 °C 
10:15:004.70 °C1020.60 hPa87.00 %3.60 km/hWNW4.70 °C2.70 °C 
10:00:004.10 °C1020.70 hPa90.00 %2.60 °C 
09:45:003.30 °C1021.00 hPa93.00 %1.80 km/hWNW3.30 °C2.30 °C 
09:30:002.50 °C1020.90 hPa94.00 %1.60 °C 
09:15:001.90 °C1021.10 hPa95.00 %1.20 °C 
09:00:001.40 °C1021.20 hPa95.00 %0.70 °C 
08:45:000.90 °C1021.00 hPa95.00 %0.20 °C 
08:30:000.50 °C1021.30 hPa94.00 %-0.40 °C 
08:15:000.20 °C1021.30 hPa94.00 %-0.60 °C 
08:00:00-0.10 °C1021.10 hPa94.00 %-1.00 °C 
07:45:00-0.50 °C1021.10 hPa94.00 %-1.40 °C 
07:30:00-0.70 °C1021.00 hPa94.00 %-1.60 °C 
07:15:00-0.90 °C1021.20 hPa93.00 %-2.00 °C 
07:00:00-0.90 °C1021.30 hPa93.00 %-2.00 °C 
06:45:00-1.00 °C1021.10 hPa93.00 %-2.10 °C 
06:30:00-1.10 °C1021.20 hPa93.00 %-2.20 °C 
06:15:00-1.10 °C1021.30 hPa93.00 %-2.20 °C 
06:00:00-1.00 °C1021.00 hPa93.00 %-2.10 °C 
05:45:00-0.90 °C1021.00 hPa93.00 %-2.00 °C 
05:30:00-0.90 °C1020.90 hPa93.00 %-2.00 °C 
05:15:00-1.10 °C1021.10 hPa93.00 %-2.20 °C 
05:00:00-1.10 °C1021.10 hPa93.00 %-2.20 °C 
04:45:00-1.10 °C1021.10 hPa93.00 %-2.20 °C 
04:30:00-1.20 °C1021.10 hPa93.00 %-2.30 °C 
04:15:00-1.30 °C1021.20 hPa92.00 %-2.60 °C 
04:00:00-0.90 °C1021.30 hPa93.00 %-2.00 °C 
03:45:00-0.70 °C1021.60 hPa93.00 %-1.80 °C 
03:30:00-0.60 °C1021.40 hPa93.00 %-1.70 °C 
03:15:00-0.60 °C1021.50 hPa93.00 %-1.70 °C 
03:00:00-0.50 °C1021.80 hPa93.00 %-1.60 °C 
02:45:00-0.40 °C1021.60 hPa93.00 %-1.50 °C 
02:30:00-0.20 °C1021.80 hPa92.00 %-1.50 °C 
02:15:00-0.10 °C1021.90 hPa92.00 %-1.40 °C 
02:00:000.10 °C1022.00 hPa92.00 %-1.00 °C 
01:45:000.10 °C1022.10 hPa92.00 %-1.00 °C 
01:30:000.20 °C1022.10 hPa92.00 %-0.90 °C 
01:15:000.20 °C1022.10 hPa92.00 %-0.90 °C 
01:00:000.30 °C1021.90 hPa93.00 %-0.70 °C 
00:45:000.30 °C1021.90 hPa93.00 %-0.70 °C 
00:30:000.40 °C1021.80 hPa93.00 %-0.60 °C 
00:15:000.40 °C1021.90 hPa92.00 %-0.70 °C 
00:00:000.60 °C1021.60 hPa92.00 %-0.50 °C 

Permanenter Link zu dieser Seite: Wetter im Erzgebirge am 11.03.2017
Performance-Info: Die Erstellung der Seite / Statistik(en) / Tabelle(n) erforderte 5 Datenbankserver-Abfrage(n) und dauerte 68 Millisekunden. (Dieser Messwert ist von der Gesamt-Auslastung des Servers abhängig.)
Erzgebirge - Wetter | Erzgebirge - Wetter (Mobilgeräte) | Komplette Klimadatenbank